Time;durP1;ratioP1;P1;durP2;ratioP2;P2;SDS_P1;SDS_P2;PMS_P1;PMS_P2;Temp;Humidity;BMP_temperature;BMP_pressure;BME280_temperature;BME280_humidity;BME280_pressure;Samples;Min_cycle;Max_cycle;Signal;HPM_P1;HPM_P2
2023/05/10 00:01:29;;;;;;;16.95;15.25;;;;;;;;;;5033662;28;20083;-57
2023/05/10 00:03:55;;;;;;;16.75;15.05;;;;;;;;;;5015839;28;20021;-58
2023/05/10 00:09:24;;;;;;;16.75;15.05;;;;;;;;;;5033878;28;20067;-55
2023/05/10 00:11:58;;;;;;;16.95;15.25;;;;;;;;;;5033596;28;20484;-58
2023/05/10 00:14:24;;;;;;;17.40;15.60;;;;;;;;;;5031686;28;20108;-59
2023/05/10 00:16:50;;;;;;;18.00;16.30;;;;;;;;;;5033268;28;20501;-54
2023/05/10 00:19:16;;;;;;;17.27;15.57;;;;;;;;;;5033207;28;20024;-55
2023/05/10 00:21:42;;;;;;;17.90;16.20;;;;;;;;;;5033126;28;20017;-57
2023/05/10 00:24:26;;;;;;;17.50;15.80;;;;;;;;;;5032784;28;20061;-60
2023/05/10 00:26:52;;;;;;;19.50;17.70;;;;;;;;;;5013565;28;20033;-57
2023/05/10 00:29:19;;;;;;;18.20;16.50;;;;;;;;;;5017154;28;20458;-54
2023/05/10 00:31:51;;;;;;;18.20;16.50;;;;;;;;;;5032999;28;20029;-58
2023/05/10 00:34:17;;;;;;;18.45;16.75;;;;;;;;;;5031805;28;20029;-56
2023/05/10 00:36:43;;;;;;;18.13;16.42;;;;;;;;;;5033054;28;20021;-53
2023/05/10 00:39:09;;;;;;;17.90;16.20;;;;;;;;;;5032868;28;20018;-58
2023/05/10 00:41:35;;;;;;;18.30;16.60;;;;;;;;;;5032855;28;20422;-60
2023/05/10 00:44:01;;;;;;;18.20;16.50;;;;;;;;;;5029651;28;20021;-56
2023/05/10 00:46:43;;;;;;;18.30;16.60;;;;;;;;;;5014845;28;20024;-59
2023/05/10 00:49:09;;;;;;;17.67;15.98;;;;;;;;;;5032766;28;20025;-57
2023/05/10 00:51:36;;;;;;;19.38;17.58;;;;;;;;;;5032686;28;20025;-60
2023/05/10 00:54:02;;;;;;;19.38;17.58;;;;;;;;;;5032441;28;20047;-55
2023/05/10 00:56:53;;;;;;;20.00;18.20;;;;;;;;;;5014935;28;20087;-56
2023/05/10 00:59:29;;;;;;;21.50;19.60;;;;;;;;;;5015043;28;20045;-58
2023/05/10 01:01:55;;;;;;;19.70;17.90;;;;;;;;;;5014885;28;20025;-54
2023/05/10 01:04:25;;;;;;;19.45;17.65;;;;;;;;;;5014570;28;20021;-58
2023/05/10 01:06:54;;;;;;;20.02;18.23;;;;;;;;;;5032529;28;20408;-58
2023/05/10 01:09:20;;;;;;;19.63;17.83;;;;;;;;;;5032486;28;20389;-57
2023/05/10 01:11:46;;;;;;;19.05;17.25;;;;;;;;;;5014813;28;20033;-57
2023/05/10 01:14:12;;;;;;;19.40;17.60;;;;;;;;;;5031840;28;20120;-54
2023/05/10 01:16:51;;;;;;;19.95;18.15;;;;;;;;;;5014710;28;20021;-54
2023/05/10 01:22:01;;;;;;;19.60;17.80;;;;;;;;;;5032358;28;20269;-58
2023/05/10 01:24:46;;;;;;;20.05;18.25;;;;;;;;;;5031841;28;20021;-55
2023/05/10 01:27:49;;;;;;;21.33;19.52;;;;;;;;;;5032004;28;20036;-54
2023/05/10 01:30:33;;;;;;;21.50;19.70;;;;;;;;;;5032307;28;20104;-58
2023/05/10 01:32:59;;;;;;;22.58;20.67;;;;;;;;;;5032056;28;20504;-55
2023/05/10 01:35:25;;;;;;;22.60;20.70;;;;;;;;;;5031688;28;20037;-58
2023/05/10 01:38:03;;;;;;;23.60;21.70;;;;;;;;;;5014117;28;20079;-55
2023/05/10 01:40:36;;;;;;;24.08;22.17;;;;;;;;;;5032036;28;20040;-56
2023/05/10 01:43:03;;;;;;;25.77;23.77;;;;;;;;;;5031987;28;20017;-55
2023/05/10 01:45:34;;;;;;;24.17;22.20;;;;;;;;;;5031561;28;20083;-58
2023/05/10 01:48:31;;;;;;;24.27;22.27;;;;;;;;;;5031884;28;20084;-58
2023/05/10 01:51:22;;;;;;;24.70;22.70;;;;;;;;;;5032550;28;20040;-54
2023/05/10 01:53:49;;;;;;;23.65;21.75;;;;;;;;;;5032148;28;20100;-55
2023/05/10 01:56:42;;;;;;;24.38;22.38;;;;;;;;;;5031789;28;20394;-56
2023/05/10 01:59:30;;;;;;;23.80;21.90;;;;;;;;;;5031598;28;20013;-58
2023/05/10 02:01:58;;;;;;;23.50;21.45;;;;;;;;;;5031705;28;20465;-56
2023/05/10 02:04:25;;;;;;;24.00;22.10;;;;;;;;;;5031506;28;20037;-57
2023/05/10 02:06:56;;;;;;;22.95;21.05;;;;;;;;;;5031803;28;20279;-57
2023/05/10 02:09:44;;;;;;;23.33;21.42;;;;;;;;;;5013828;28;20033;-55
2023/05/10 02:12:10;;;;;;;22.98;21.08;;;;;;;;;;5031724;28;20520;-55
2023/05/10 02:14:37;;;;;;;23.73;21.83;;;;;;;;;;5031194;28;20089;-57
2023/05/10 02:17:09;;;;;;;23.08;21.17;;;;;;;;;;5031727;28;20025;-56
2023/05/10 02:19:38;;;;;;;22.58;20.67;;;;;;;;;;5031624;28;20037;-58
2023/05/10 02:22:05;;;;;;;23.00;21.10;;;;;;;;;;5031614;28;20469;-60
2023/05/10 02:24:32;;;;;;;23.88;21.98;;;;;;;;;;5030999;28;20026;-58
2023/05/10 02:26:59;;;;;;;23.35;21.45;;;;;;;;;;5031454;28;20075;-57
2023/05/10 02:29:26;;;;;;;23.90;22.00;;;;;;;;;;5031513;28;20515;-57
2023/05/10 02:31:53;;;;;;;25.50;23.40;;;;;;;;;;5031544;28;20060;-59
2023/05/10 02:34:20;;;;;;;25.08;23.08;;;;;;;;;;5031398;28;20032;-52
2023/05/10 02:36:46;;;;;;;25.08;23.08;;;;;;;;;;5031940;28;20101;-57
2023/05/10 02:39:13;;;;;;;25.15;23.15;;;;;;;;;;5014089;28;20025;-59
2023/05/10 02:41:41;;;;;;;24.77;22.77;;;;;;;;;;5015064;28;20043;-59
2023/05/10 02:44:08;;;;;;;24.75;22.75;;;;;;;;;;5032080;28;20642;-58
2023/05/10 02:49:38;;;;;;;23.73;21.83;;;;;;;;;;5031416;28;20044;-58
2023/05/10 02:52:09;;;;;;;23.60;21.70;;;;;;;;;;5031258;28;20030;-59
2023/05/10 02:54:40;;;;;;;24.80;22.80;;;;;;;;;;5031030;28;20077;-56
2023/05/10 02:57:06;;;;;;;23.83;21.92;;;;;;;;;;5031509;28;20021;-57
2023/05/10 02:59:33;;;;;;;24.80;22.80;;;;;;;;;;5034853;28;20047;-58
2023/05/10 03:02:00;;;;;;;24.75;22.75;;;;;;;;;;5017363;28;20102;-58
2023/05/10 03:04:26;;;;;;;24.20;22.30;;;;;;;;;;5016711;28;20558;-56
2023/05/10 03:06:58;;;;;;;23.38;21.48;;;;;;;;;;5034561;28;20474;-56
2023/05/10 03:09:31;;;;;;;23.83;21.92;;;;;;;;;;5035625;28;20021;-58
2023/05/10 03:12:12;;;;;;;23.63;21.73;;;;;;;;;;5035949;28;20024;-59
2023/05/10 03:15:01;;;;;;;23.30;21.40;;;;;;;;;;5035487;28;20036;-58
2023/05/10 03:20:36;;;;;;;24.30;22.40;;;;;;;;;;5036159;28;20591;-58
2023/05/10 03:23:08;;;;;;;23.70;21.80;;;;;;;;;;5034921;28;20052;-58
2023/05/10 03:25:34;;;;;;;24.35;22.45;;;;;;;;;;5034677;28;20022;-57
2023/05/10 03:28:02;;;;;;;25.75;23.75;;;;;;;;;;5035140;28;20025;-56
2023/05/10 03:30:28;;;;;;;26.83;24.80;;;;;;;;;;5017246;28;20059;-56
2023/05/10 03:33:32;;;;;;;27.70;25.60;;;;;;;;;;5034963;28;20272;-56
2023/05/10 03:35:58;;;;;;;27.48;25.38;;;;;;;;;;5034314;28;20032;-59
2023/05/10 03:38:24;;;;;;;26.65;24.65;;;;;;;;;;5034349;28;20017;-57
2023/05/10 03:40:50;;;;;;;25.42;23.42;;;;;;;;;;5034273;28;20050;-59
2023/05/10 03:43:31;;;;;;;26.33;24.33;;;;;;;;;;5034138;28;20025;-58
2023/05/10 03:45:57;;;;;;;25.52;23.52;;;;;;;;;;5033743;28;20017;-58
2023/05/10 03:48:23;;;;;;;25.73;23.73;;;;;;;;;;5016288;28;20432;-57
2023/05/10 03:50:51;;;;;;;26.27;24.27;;;;;;;;;;5033932;28;20021;-58
2023/05/10 03:53:17;;;;;;;26.10;24.10;;;;;;;;;;5034041;28;20057;-59
2023/05/10 03:55:44;;;;;;;25.33;23.33;;;;;;;;;;5033726;28;20076;-57
2023/05/10 03:58:13;;;;;;;25.00;23.00;;;;;;;;;;5033624;28;20009;-59
2023/05/10 04:00:45;;;;;;;24.90;22.90;;;;;;;;;;5033749;28;20071;-57
2023/05/10 04:03:11;;;;;;;25.15;23.15;;;;;;;;;;5033631;28;20014;-57
2023/05/10 04:05:37;;;;;;;24.63;22.63;;;;;;;;;;5015520;28;20021;-56
2023/05/10 04:11:11;;;;;;;25.02;23.02;;;;;;;;;;5033084;28;20084;-57
2023/05/10 04:13:37;;;;;;;27.13;24.88;;;;;;;;;;5033245;28;20461;-59
2023/05/10 04:16:13;;;;;;;25.30;23.30;;;;;;;;;;5033141;28;20434;-58
2023/05/10 04:18:39;;;;;;;25.50;23.50;;;;;;;;;;5032931;28;20030;-58
2023/05/10 04:21:11;;;;;;;26.38;24.27;;;;;;;;;;5033107;28;20025;-57
2023/05/10 04:23:37;;;;;;;26.55;24.45;;;;;;;;;;5033271;28;20025;-54
2023/05/10 04:29:07;;;;;;;27.27;25.17;;;;;;;;;;5033638;28;20021;-57
2023/05/10 04:31:33;;;;;;;27.13;25.02;;;;;;;;;;5015445;28;20017;-57
2023/05/10 04:33:59;;;;;;;27.45;25.33;;;;;;;;;;5015047;28;20055;-58
2023/05/10 04:36:25;;;;;;;27.38;25.27;;;;;;;;;;5032698;28;20465;-55
2023/05/10 04:38:51;;;;;;;27.17;25.08;;;;;;;;;;5033062;28;20021;-58
2023/05/10 04:41:17;;;;;;;28.40;26.20;;;;;;;;;;5032558;28;20029;-57
2023/05/10 04:43:43;;;;;;;27.38;25.27;;;;;;;;;;5032980;28;20028;-55
2023/05/10 04:46:09;;;;;;;27.70;25.50;;;;;;;;;;5032811;28;20120;-56
2023/05/10 04:48:35;;;;;;;28.30;26.10;;;;;;;;;;5032890;28;20021;-57
2023/05/10 04:51:03;;;;;;;29.30;27.00;;;;;;;;;;5014965;28;20036;-56
2023/05/10 04:53:29;;;;;;;28.02;25.83;;;;;;;;;;5032462;28;20032;-57
2023/05/10 04:55:55;;;;;;;27.98;25.77;;;;;;;;;;5032387;28;20380;-59
2023/05/10 04:58:21;;;;;;;30.30;27.92;;;;;;;;;;5032630;28;20028;-59
2023/05/10 05:00:47;;;;;;;28.40;26.20;;;;;;;;;;5032689;28;20021;-54
2023/05/10 05:03:13;;;;;;;28.58;26.38;;;;;;;;;;5032579;28;20017;-59
2023/05/10 05:05:39;;;;;;;27.90;25.70;;;;;;;;;;5032079;28;20100;-57
2023/05/10 05:08:20;;;;;;;29.80;27.50;;;;;;;;;;5014273;28;20028;-58
2023/05/10 05:10:47;;;;;;;29.48;27.17;;;;;;;;;;5032472;28;20024;-60
2023/05/10 05:13:13;;;;;;;28.95;26.67;;;;;;;;;;5032604;28;20477;-58
2023/05/10 05:15:39;;;;;;;28.80;26.55;;;;;;;;;;5031692;23;20050;-57
2023/05/10 05:18:33;;;;;;;28.63;26.42;;;;;;;;;;5008514;28;20064;-57
2023/05/10 05:20:59;;;;;;;28.63;26.33;;;;;;;;;;4999953;28;20019;-61
2023/05/10 05:23:25;;;;;;;28.55;26.35;;;;;;;;;;5003282;28;20072;-55
2023/05/10 05:25:55;;;;;;;28.98;26.67;;;;;;;;;;5008179;28;20117;-59
2023/05/10 05:28:21;;;;;;;28.50;26.30;;;;;;;;;;5000603;28;20071;-60
2023/05/10 05:30:47;;;;;;;28.83;26.50;;;;;;;;;;4993143;28;20023;-56
2023/05/10 05:33:16;;;;;;;29.23;26.92;;;;;;;;;;4993727;28;20140;-59
2023/05/10 05:35:47;;;;;;;28.10;25.90;;;;;;;;;;5002623;28;20447;-55
2023/05/10 05:38:13;;;;;;;28.42;26.13;;;;;;;;;;4973970;28;20471;-58
2023/05/10 05:40:39;;;;;;;29.65;27.35;;;;;;;;;;4972481;28;20097;-58
2023/05/10 05:43:05;;;;;;;29.00;26.70;;;;;;;;;;4973332;28;20051;-58
2023/05/10 05:45:31;;;;;;;28.65;26.35;;;;;;;;;;4988749;28;20027;-56
2023/05/10 05:47:57;;;;;;;28.88;26.58;;;;;;;;;;4988029;28;20423;-61
2023/05/10 05:50:23;;;;;;;28.58;26.27;;;;;;;;;;4974145;28;20057;-55
2023/05/10 05:52:49;;;;;;;28.58;26.27;;;;;;;;;;4979393;28;20025;-54
2023/05/10 05:55:15;;;;;;;30.00;27.58;;;;;;;;;;4993063;28;20027;-56
2023/05/10 05:57:41;;;;;;;41.47;27.88;;;;;;;;;;4993284;28;20031;-55
2023/05/10 06:00:07;;;;;;;29.38;26.88;;;;;;;;;;4992752;28;20062;-58
2023/05/10 06:02:33;;;;;;;28.90;26.60;;;;;;;;;;5005665;28;20022;-59
2023/05/10 06:04:59;;;;;;;31.00;28.27;;;;;;;;;;4986595;28;20401;-57
2023/05/10 06:07:25;;;;;;;29.75;27.35;;;;;;;;;;4984992;28;20378;-57
2023/05/10 06:09:51;;;;;;;29.67;27.17;;;;;;;;;;5007500;28;20022;-54
2023/05/10 06:12:17;;;;;;;30.45;27.90;;;;;;;;;;4992414;28;20029;-57
2023/05/10 06:14:43;;;;;;;30.67;28.20;;;;;;;;;;4985244;28;20051;-60
2023/05/10 06:17:09;;;;;;;31.40;28.90;;;;;;;;;;4993972;28;20018;-59
2023/05/10 06:19:36;;;;;;;31.63;29.13;;;;;;;;;;4994752;28;20068;-57
2023/05/10 06:22:02;;;;;;;31.42;28.92;;;;;;;;;;4994643;28;20022;-59
2023/05/10 06:24:28;;;;;;;31.58;29.08;;;;;;;;;;4986713;28;20027;-60
2023/05/10 06:27:03;;;;;;;31.67;29.17;;;;;;;;;;4995748;28;20018;-59
2023/05/10 06:29:29;;;;;;;33.15;30.55;;;;;;;;;;4994864;28;20018;-59
2023/05/10 06:31:55;;;;;;;35.25;32.65;;;;;;;;;;4995898;28;20022;-57
2023/05/10 06:34:21;;;;;;;34.08;31.48;;;;;;;;;;4991254;28;20117;-61
2023/05/10 06:36:47;;;;;;;34.35;31.75;;;;;;;;;;4999580;28;20077;-61
2023/05/10 06:39:13;;;;;;;33.80;31.20;;;;;;;;;;4999156;28;20068;-59
2023/05/10 06:41:40;;;;;;;33.20;30.60;;;;;;;;;;4998263;28;20058;-57
2023/05/10 06:44:06;;;;;;;34.35;31.75;;;;;;;;;;5013665;28;20026;-62
2023/05/10 06:46:32;;;;;;;34.55;31.85;;;;;;;;;;4998864;28;20026;-60
2023/05/10 06:48:58;;;;;;;36.78;33.97;;;;;;;;;;4998121;28;20486;-56
2023/05/10 06:51:24;;;;;;;38.15;35.25;;;;;;;;;;4999219;28;20105;-60
2023/05/10 06:53:50;;;;;;;37.42;34.60;;;;;;;;;;4999138;28;20482;-57
2023/05/10 06:56:16;;;;;;;35.42;32.72;;;;;;;;;;4998401;28;20026;-59
2023/05/10 06:58:42;;;;;;;40.47;36.22;;;;;;;;;;4999183;28;20028;-59
2023/05/10 07:01:08;;;;;;;37.92;35.03;;;;;;;;;;4998886;28;20074;-61
2023/05/10 07:03:34;;;;;;;37.50;34.50;;;;;;;;;;4998707;28;20022;-59
2023/05/10 07:06:09;;;;;;;35.42;32.63;;;;;;;;;;4995499;28;20058;-58
2023/05/10 07:08:35;;;;;;;36.38;33.58;;;;;;;;;;4993729;28;20382;-61
2023/05/10 07:11:03;;;;;;;34.95;32.25;;;;;;;;;;4993557;28;20024;-61
2023/05/10 07:13:29;;;;;;;38.25;35.38;;;;;;;;;;5008377;28;20018;-61
2023/05/10 07:16:23;;;;;;;35.92;33.15;;;;;;;;;;4992937;28;20026;-60
2023/05/10 07:18:50;;;;;;;37.47;34.58;;;;;;;;;;4995312;28;20057;-59
2023/05/10 07:21:16;;;;;;;37.83;35.03;;;;;;;;;;5013187;28;20060;-58
2023/05/10 07:23:42;;;;;;;37.55;34.80;;;;;;;;;;5013180;28;20025;-59
2023/05/10 07:26:09;;;;;;;40.05;36.97;;;;;;;;;;5012683;28;20377;-60
2023/05/10 07:28:37;;;;;;;39.78;36.97;;;;;;;;;;5004850;28;20018;-60
2023/05/10 07:31:03;;;;;;;38.40;35.63;;;;;;;;;;4993212;28;20374;-56
2023/05/10 07:33:29;;;;;;;36.03;33.42;;;;;;;;;;4984834;28;20027;-60
2023/05/10 07:36:04;;;;;;;38.78;36.05;;;;;;;;;;4988673;28;20070;-58
2023/05/10 07:38:30;;;;;;;37.50;34.88;;;;;;;;;;4982519;28;20089;-59
2023/05/10 07:43:59;;;;;;;34.67;32.15;;;;;;;;;;4992844;28;20065;-57
2023/05/10 07:46:26;;;;;;;44.85;28.60;;;;;;;;;;5008326;28;20114;-56
2023/05/10 07:48:52;;;;;;;31.40;29.02;;;;;;;;;;4993154;28;20022;-60
2023/05/10 07:51:36;;;;;;;29.50;27.30;;;;;;;;;;5007986;28;20018;-58
2023/05/10 07:54:02;;;;;;;31.02;28.42;;;;;;;;;;5005875;28;20514;-59
2023/05/10 07:56:31;;;;;;;29.88;27.48;;;;;;;;;;4984069;28;20030;-60
2023/05/10 07:58:58;;;;;;;28.20;26.00;;;;;;;;;;5007716;28;20018;-59
2023/05/10 08:01:36;;;;;;;26.42;24.33;;;;;;;;;;4992563;28;20070;-60
2023/05/10 08:04:02;;;;;;;28.27;26.08;;;;;;;;;;5007282;28;20030;-59
2023/05/10 08:06:29;;;;;;;26.90;24.80;;;;;;;;;;5007567;28;20031;-60
2023/05/10 08:08:55;;;;;;;27.77;25.60;;;;;;;;;;5007430;28;20031;-57
2023/05/10 08:11:22;;;;;;;27.60;25.33;;;;;;;;;;5007794;28;20355;-59
2023/05/10 08:13:49;;;;;;;23.67;21.67;;;;;;;;;;5007168;28;20128;-56
2023/05/10 08:16:15;;;;;;;25.27;23.25;;;;;;;;;;5007366;28;20038;-58
2023/05/10 08:18:41;;;;;;;22.02;20.13;;;;;;;;;;5006219;28;20029;-60
2023/05/10 08:21:32;;;;;;;18.90;17.10;;;;;;;;;;5007427;28;20307;-58
2023/05/10 08:27:02;;;;;;;20.13;15.88;;;;;;;;;;4992594;28;20049;-60
2023/05/10 08:29:28;;;;;;;14.73;12.27;;;;;;;;;;5007362;28;20026;-59
2023/05/10 08:31:54;;;;;;;14.55;11.70;;;;;;;;;;5006959;28;20041;-60
2023/05/10 08:34:47;;;;;;;14.60;11.00;;;;;;;;;;5006178;28;20022;-58
2023/05/10 08:37:14;;;;;;;14.68;10.30;;;;;;;;;;5007169;28;20075;-59
2023/05/10 08:39:40;;;;;;;13.98;9.13;;;;;;;;;;5007540;28;20420;-59
2023/05/10 08:42:06;;;;;;;14.57;10.40;;;;;;;;;;5007280;28;20026;-59
2023/05/10 08:44:35;;;;;;;14.15;10.02;;;;;;;;;;5006362;28;20056;-59
2023/05/10 08:47:05;;;;;;;13.90;9.60;;;;;;;;;;5006963;28;20073;-60
2023/05/10 08:49:32;;;;;;;17.38;10.90;;;;;;;;;;5006797;28;20165;-61
2023/05/10 08:52:26;;;;;;;15.10;10.10;;;;;;;;;;5006539;28;20403;-60
2023/05/10 08:54:52;;;;;;;13.82;8.95;;;;;;;;;;5005062;28;20026;-60
2023/05/10 08:57:20;;;;;;;13.45;8.45;;;;;;;;;;5006497;28;20070;-60
2023/05/10 08:59:46;;;;;;;11.48;6.90;;;;;;;;;;5006693;28;20097;-58
2023/05/10 09:02:13;;;;;;;11.13;6.68;;;;;;;;;;4991488;28;20022;-61
2023/05/10 09:04:39;;;;;;;15.45;8.18;;;;;;;;;;5004938;28;20023;-60
2023/05/10 09:07:06;;;;;;;11.82;7.40;;;;;;;;;;4990737;28;20109;-59
2023/05/10 09:09:32;;;;;;;11.43;6.97;;;;;;;;;;4983283;28;20030;-59
2023/05/10 09:11:58;;;;;;;12.65;8.13;;;;;;;;;;4991431;28;20513;-60
2023/05/10 09:14:25;;;;;;;12.23;8.23;;;;;;;;;;4982822;28;20042;-58
2023/05/10 09:17:00;;;;;;;11.45;6.95;;;;;;;;;;4991437;28;20478;-59
2023/05/10 09:19:26;;;;;;;11.63;7.22;;;;;;;;;;4992931;28;20097;-62
2023/05/10 09:21:52;;;;;;;11.45;7.30;;;;;;;;;;5011990;28;20084;-60
2023/05/10 09:24:18;;;;;;;11.75;7.05;;;;;;;;;;4993029;28;20109;-55
2023/05/10 09:26:51;;;;;;;10.43;6.38;;;;;;;;;;4991629;28;20019;-57
2023/05/10 09:29:17;;;;;;;12.68;7.97;;;;;;;;;;4991264;28;20029;-56
2023/05/10 09:31:47;;;;;;;10.68;6.43;;;;;;;;;;4989859;28;20033;-60
2023/05/10 09:34:17;;;;;;;10.38;6.28;;;;;;;;;;4990464;28;20018;-60
2023/05/10 09:36:53;;;;;;;11.07;6.78;;;;;;;;;;4983080;28;20045;-57
2023/05/10 09:39:19;;;;;;;11.20;6.78;;;;;;;;;;4990905;28;20053;-60
2023/05/10 09:41:45;;;;;;;11.65;7.25;;;;;;;;;;4990919;28;20030;-61
2023/05/10 09:44:12;;;;;;;11.40;6.85;;;;;;;;;;4990709;28;20110;-61
2023/05/10 09:46:38;;;;;;;12.48;7.43;;;;;;;;;;4990324;28;20553;-60
2023/05/10 09:49:06;;;;;;;12.00;7.35;;;;;;;;;;4990668;28;20494;-59
2023/05/10 09:51:44;;;;;;;15.77;8.73;;;;;;;;;;4982666;28;20030;-59
2023/05/10 09:54:10;;;;;;;10.80;6.63;;;;;;;;;;4990581;28;20068;-60
2023/05/10 09:56:38;;;;;;;13.02;8.00;;;;;;;;;;4990739;28;20126;-58
2023/05/10 09:59:05;;;;;;;11.10;6.88;;;;;;;;;;4989602;28;20097;-58
2023/05/10 10:01:49;;;;;;;10.45;6.30;;;;;;;;;;4990325;28;20101;-60
2023/05/10 10:04:15;;;;;;;12.30;7.93;;;;;;;;;;4983112;28;20026;-59
2023/05/10 10:06:42;;;;;;;11.00;6.55;;;;;;;;;;5007432;28;20026;-60
2023/05/10 10:09:08;;;;;;;10.82;6.97;;;;;;;;;;4994739;28;20037;-58
2023/05/10 10:11:35;;;;;;;11.45;7.18;;;;;;;;;;4995021;28;20122;-59
2023/05/10 10:14:01;;;;;;;10.82;6.50;;;;;;;;;;4994754;28;20065;-59
2023/05/10 10:17:01;;;;;;;33.00;21.67;;;;;;;;;;4994755;28;20062;-59
2023/05/10 10:19:27;;;;;;;30.75;18.70;;;;;;;;;;4994004;28;20061;-56
2023/05/10 10:21:53;;;;;;;29.52;18.48;;;;;;;;;;4994576;28;20018;-60
2023/05/10 10:24:19;;;;;;;28.55;19.88;;;;;;;;;;4991919;28;20073;-55
2023/05/10 10:27:05;;;;;;;28.85;19.17;;;;;;;;;;4987112;28;20050;-59
2023/05/10 10:29:31;;;;;;;29.80;19.55;;;;;;;;;;4993967;28;20104;-59
2023/05/10 10:32:15;;;;;;;29.15;19.98;;;;;;;;;;4987133;28;20479;-60
2023/05/10 10:34:41;;;;;;;29.75;20.55;;;;;;;;;;4994223;28;20026;-59
2023/05/10 10:37:07;;;;;;;31.02;20.73;;;;;;;;;;4993016;28;20022;-60
2023/05/10 10:39:36;;;;;;;32.00;20.85;;;;;;;;;;4993057;28;20132;-60
2023/05/10 10:42:03;;;;;;;34.00;22.15;;;;;;;;;;4987588;28;20082;-58
2023/05/10 10:44:33;;;;;;;29.15;19.83;;;;;;;;;;4993980;28;20028;-60
2023/05/10 10:47:11;;;;;;;29.27;20.73;;;;;;;;;;4993999;28;20021;-59
2023/05/10 10:49:38;;;;;;;31.83;20.55;;;;;;;;;;4994244;28;20101;-59
2023/05/10 10:52:16;;;;;;;29.77;20.40;;;;;;;;;;4993963;28;20030;-59
2023/05/10 10:54:50;;;;;;;29.17;19.25;;;;;;;;;;5008687;28;20029;-59
2023/05/10 10:57:18;;;;;;;27.13;18.02;;;;;;;;;;4994008;28;20022;-58
2023/05/10 10:59:45;;;;;;;29.35;18.98;;;;;;;;;;4997100;28;20050;-61
2023/05/10 11:02:31;;;;;;;26.42;16.08;;;;;;;;;;4993939;28;20076;-55
2023/05/10 11:04:57;;;;;;;24.00;16.00;;;;;;;;;;4974605;28;20061;-60
2023/05/10 11:07:23;;;;;;;27.63;19.33;;;;;;;;;;4974865;28;20042;-60
2023/05/10 11:09:49;;;;;;;29.02;18.63;;;;;;;;;;4989523;28;20026;-61
2023/05/10 11:12:15;;;;;;;26.58;18.23;;;;;;;;;;4974254;28;20359;-58
2023/05/10 11:14:41;;;;;;;27.15;18.13;;;;;;;;;;4973786;28;20042;-58
2023/05/10 11:17:23;;;;;;;30.58;18.77;;;;;;;;;;4974557;28;20030;-57
2023/05/10 11:20:09;;;;;;;27.80;17.60;;;;;;;;;;4990600;28;20067;-60
2023/05/10 11:22:54;;;;;;;25.42;16.50;;;;;;;;;;4991562;28;20022;-59
2023/05/10 11:28:03;;;;;;;28.73;19.58;;;;;;;;;;4996397;28;20351;-61
2023/05/10 11:30:29;;;;;;;28.85;19.33;;;;;;;;;;4997395;28;20466;-61
2023/05/10 11:32:55;;;;;;;28.58;19.17;;;;;;;;;;4993064;28;20014;-61
2023/05/10 11:35:21;;;;;;;34.05;22.63;;;;;;;;;;4994448;28;20029;-60
2023/05/10 11:40:33;;;;;;;32.80;29.13;;;;;;;;;;4998936;28;20093;-61
2023/05/10 11:42:59;;;;;;;30.42;24.63;;;;;;;;;;4997235;28;20022;-60
2023/05/10 11:45:25;;;;;;;34.38;25.50;;;;;;;;;;4980009;28;20080;-61
2023/05/10 11:48:01;;;;;;;31.55;23.58;;;;;;;;;;5001368;28;20472;-59
2023/05/10 11:50:27;;;;;;;28.92;21.33;;;;;;;;;;4987128;28;20109;-61
2023/05/10 11:52:54;;;;;;;29.90;22.00;;;;;;;;;;4976810;28;20052;-61
2023/05/10 11:55:20;;;;;;;27.80;21.63;;;;;;;;;;4993626;28;20029;-62
2023/05/10 11:57:47;;;;;;;30.95;21.60;;;;;;;;;;4975665;28;20019;-62
2023/05/10 12:00:13;;;;;;;27.75;19.73;;;;;;;;;;4975631;28;20023;-61
2023/05/10 12:02:39;;;;;;;28.88;21.45;;;;;;;;;;4976325;28;20026;-60
2023/05/10 12:05:06;;;;;;;30.13;22.52;;;;;;;;;;4976263;28;20050;-61
2023/05/10 12:07:32;;;;;;;29.40;22.30;;;;;;;;;;4975773;28;20037;-61
2023/05/10 12:10:09;;;;;;;29.05;20.88;;;;;;;;;;4976700;28;20034;-61
2023/05/10 12:12:39;;;;;;;28.10;20.80;;;;;;;;;;4976868;28;20092;-60
2023/05/10 12:15:06;;;;;;;29.10;19.98;;;;;;;;;;4993383;28;20442;-59
2023/05/10 12:17:32;;;;;;;29.92;21.13;;;;;;;;;;4993892;28;20041;-62
2023/05/10 12:20:17;;;;;;;30.95;21.50;;;;;;;;;;4975960;28;20033;-62
2023/05/10 12:22:47;;;;;;;29.83;20.85;;;;;;;;;;4976142;28;20056;-59
2023/05/10 12:25:13;;;;;;;30.77;20.00;;;;;;;;;;4975803;28;20195;-60
2023/05/10 12:27:39;;;;;;;28.65;20.20;;;;;;;;;;4976114;28;20045;-57
2023/05/10 12:30:05;;;;;;;28.48;18.90;;;;;;;;;;4992872;28;20026;-58
2023/05/10 12:35:44;;;;;;;26.70;16.73;;;;;;;;;;4993206;28;20034;-60
2023/05/10 12:38:29;;;;;;;27.92;18.23;;;;;;;;;;4975758;28;20092;-60
2023/05/10 12:41:26;;;;;;;28.15;17.42;;;;;;;;;;4992895;28;20449;-56
2023/05/10 12:43:52;;;;;;;25.10;16.13;;;;;;;;;;4993172;28;20491;-62
2023/05/10 12:46:18;;;;;;;25.25;15.93;;;;;;;;;;4992772;28;20026;-61
2023/05/10 12:48:46;;;;;;;25.27;16.02;;;;;;;;;;4993260;28;20026;-60
2023/05/10 12:51:15;;;;;;;25.10;16.90;;;;;;;;;;4975738;28;20022;-58
2023/05/10 12:53:41;;;;;;;23.27;15.75;;;;;;;;;;4993177;28;20104;-61
2023/05/10 12:56:16;;;;;;;20.88;13.93;;;;;;;;;;4975006;28;20023;-59
2023/05/10 12:58:47;;;;;;;23.17;15.52;;;;;;;;;;4975686;28;20505;-58
2023/05/10 13:01:23;;;;;;;22.58;14.77;;;;;;;;;;4975500;28;20057;-61
2023/05/10 13:03:49;;;;;;;23.25;14.07;;;;;;;;;;4992541;28;20032;-62
2023/05/10 13:06:15;;;;;;;23.75;14.85;;;;;;;;;;4979511;28;20113;-62
2023/05/10 13:08:41;;;;;;;20.30;13.85;;;;;;;;;;4998409;28;20042;-60
2023/05/10 13:11:07;;;;;;;20.58;14.63;;;;;;;;;;4981423;28;20478;-62
2023/05/10 13:13:33;;;;;;;22.88;14.88;;;;;;;;;;4974968;28;20030;-60
2023/05/10 13:16:12;;;;;;;25.58;15.70;;;;;;;;;;4974699;28;20033;-62
2023/05/10 13:18:38;;;;;;;23.58;14.65;;;;;;;;;;4975254;28;20018;-61
2023/05/10 13:21:05;;;;;;;22.30;15.30;;;;;;;;;;4629281;28;9999620;-58
2023/05/10 13:23:31;;;;;;;23.60;16.25;;;;;;;;;;4988262;28;20080;-60
2023/05/10 13:25:57;;;;;;;20.88;14.30;;;;;;;;;;4971686;28;20315;-60
2023/05/10 13:28:23;;;;;;;22.77;16.33;;;;;;;;;;4971876;28;20026;-59
2023/05/10 13:31:01;;;;;;;24.13;15.75;;;;;;;;;;4972772;28;20427;-62
2023/05/10 13:33:27;;;;;;;27.17;16.20;;;;;;;;;;4972075;28;20418;-60
2023/05/10 13:36:09;;;;;;;23.05;15.18;;;;;;;;;;4971545;28;20490;-58
2023/05/10 13:38:35;;;;;;;25.27;16.30;;;;;;;;;;4972355;28;20486;-58
2023/05/10 13:41:01;;;;;;;30.42;16.88;;;;;;;;;;4972144;28;20030;-59
2023/05/10 13:43:27;;;;;;;26.20;16.70;;;;;;;;;;4971994;28;20040;-60
2023/05/10 13:46:05;;;;;;;27.67;17.98;;;;;;;;;;4975974;28;20030;-61
2023/05/10 13:48:31;;;;;;;28.58;17.88;;;;;;;;;;4968243;28;20421;-61
2023/05/10 13:51:13;;;;;;;24.20;16.35;;;;;;;;;;4988904;28;20077;-61
2023/05/10 13:53:39;;;;;;;28.38;17.80;;;;;;;;;;4988811;28;20030;-62
2023/05/10 13:56:05;;;;;;;26.83;17.88;;;;;;;;;;4971733;28;20078;-60
2023/05/10 13:58:32;;;;;;;27.95;19.13;;;;;;;;;;4971611;28;20449;-61
2023/05/10 14:01:11;;;;;;;25.77;16.92;;;;;;;;;;4971561;28;20018;-62
2023/05/10 14:03:37;;;;;;;27.52;18.33;;;;;;;;;;4989187;28;20028;-61
2023/05/10 14:06:04;;;;;;;29.73;19.33;;;;;;;;;;4991051;28;20025;-60
2023/05/10 14:08:30;;;;;;;27.80;18.35;;;;;;;;;;4971613;28;20709;-62
2023/05/10 14:10:56;;;;;;;27.60;19.52;;;;;;;;;;4998177;28;20083;-60
2023/05/10 14:13:22;;;;;;;27.80;18.02;;;;;;;;;;4990952;28;20156;-61
2023/05/10 14:15:48;;;;;;;27.88;19.50;;;;;;;;;;4989755;28;20120;-60
2023/05/10 14:18:14;;;;;;;27.67;18.63;;;;;;;;;;4989268;28;20018;-60
2023/05/10 14:20:40;;;;;;;27.45;17.90;;;;;;;;;;4989075;28;20106;-61
2023/05/10 14:23:07;;;;;;;28.75;18.85;;;;;;;;;;4993418;28;20028;-59
2023/05/10 14:25:34;;;;;;;29.23;19.42;;;;;;;;;;4995124;28;20030;-61
2023/05/10 14:28:00;;;;;;;28.58;16.67;;;;;;;;;;4988863;28;20024;-60
2023/05/10 14:30:26;;;;;;;24.67;17.23;;;;;;;;;;4989609;28;20049;-61
2023/05/10 14:32:53;;;;;;;26.73;16.98;;;;;;;;;;4972303;28;20080;-59
2023/05/10 14:35:20;;;;;;;26.38;16.10;;;;;;;;;;4972171;28;20037;-60
2023/05/10 14:41:26;;;;;;;25.00;16.02;;;;;;;;;;4988669;28;20497;-60
2023/05/10 14:43:54;;;;;;;24.55;16.15;;;;;;;;;;4971574;28;20015;-59
2023/05/10 15:01:38;;;;;;;28.55;17.52;;;;;;;;;;4998017;28;20142;-56
2023/05/10 15:04:04;;;;;;;27.45;18.35;;;;;;;;;;4975136;28;20497;-58
2023/05/10 15:06:31;;;;;;;30.25;19.85;;;;;;;;;;4985321;28;20029;-57
2023/05/10 15:08:57;;;;;;;31.00;18.42;;;;;;;;;;4992269;28;20766;-56
2023/05/10 15:11:23;;;;;;;33.20;19.58;;;;;;;;;;4995379;28;20026;-61
2023/05/10 15:13:50;;;;;;;30.17;18.95;;;;;;;;;;4974557;28;20015;-60
2023/05/10 15:16:16;;;;;;;28.83;18.85;;;;;;;;;;4991975;28;20488;-57
2023/05/10 15:18:42;;;;;;;27.17;17.38;;;;;;;;;;4992385;28;20026;-59
2023/05/10 15:21:08;;;;;;;28.13;17.58;;;;;;;;;;4991841;28;20025;-63
2023/05/10 15:23:34;;;;;;;26.13;17.05;;;;;;;;;;4975151;28;20038;-62